M I D A S
Marine Information and Data Acquisition System
Tripno 858 of the Zeeleeuw from 2005-03-08 07:18:40 to 2005-03-08 16:14:43
Back to CruiseResearch ActivitiesStationsMapUnderway DataData graphs

EquipmentUnitsComment
TimeDGPSUTC
LatitudeDGPSDM.mWGS84
LongitudeDGPSDM.mWGS84
TemperatureSBE03/SBE38deg celciusITS90
ConductivitySBE21S/mITS90
SalinitySBE21 Practical Salinity Units
ChlorophylAChelsea fluorimeterg/lCalibrated in Aceton
Missing or incorrect values are displayed as -999
Sea surface data collected by the RV Zeeleeuw from 2005-03-08 07:19:27 to 2005-03-08 16:24:33
Time Latitude Longitude Temperature Conductivity Salinity ChlorophylA
2005-03-08 07:20:32 51°13.622 2°56.004 5.4371 2.272058 16.515932 -0.073352
2005-03-08 07:21:32 51°13.665 2°55.898 3.5686 2.114211 21.248088 4.443708
2005-03-08 07:22:32 51°13.698 2°55.797 3.3076 2.136491 22.119577 3.533554
2005-03-08 07:23:32 51°13.707 2°55.747 3.3486 2.04205 21.178542 4.241452
2005-03-08 07:24:33 51°13.698 2°55.734 3.3464 1.795613 18.429467 5.893212
2005-03-08 07:25:32 51°13.75 2°55.711 3.3857 1.895552 19.548644 6.837076
2005-03-08 07:26:31 51°13.852 2°55.619 3.3164 1.579363 16.014653 6.837076
2005-03-08 07:27:32 51°13.998 2°55.513 3.2556 1.816606 18.648686 5.758375
2005-03-08 07:28:31 51°14.14 2°55.407 3.2323 1.87214 19.328378 4.91564
2005-03-08 07:29:32 51°14.283 2°55.233 3.2643 1.931148 20.020268 4.072905
2005-03-08 07:30:31 51°14.402 2°54.998 3.2961 1.893768 19.591806 3.870648
2005-03-08 07:31:32 51°14.55 2°54.764 3.3221 2.36245 24.915435 3.162751
2005-03-08 07:32:31 51°14.697 2°54.514 3.1338 2.617141 27.941831 2.555982
2005-03-08 07:33:31 51°14.846 2°54.26 3.0964 2.677628 28.764441 2.758238
2005-03-08 07:34:31 51°14.98 2°53.986 3.0782 2.690358 28.957636 3.702101
2005-03-08 07:35:31 51°15.115 2°53.711 3.0841 2.702772 29.097433 4.747093
2005-03-08 07:36:32 51°15.218 2°53.401 3.1041 2.711189 29.214272 3.904358
2005-03-08 07:37:32 51°15.284 2°53.056 3.0949 2.728758 29.38674 2.65711
2005-03-08 07:38:31 51°15.319 2°52.702 3.065 2.727075 29.379045 2.589691
2005-03-08 07:39:31 51°15.345 2°52.344 3.0717 2.720657 29.322527 2.589691
2005-03-08 07:40:32 51°15.371 2°51.984 3.0356 2.718238 29.310967 2.724529
2005-03-08 07:41:32 51°15.375 2°51.626 3.023 2.714976 29.28205 2.724529
2005-03-08 07:42:32 51°15.347 2°51.269 3.0163 2.713293 29.283299 2.724529
2005-03-08 07:43:31 51°15.31 2°50.922 3.0402 2.712031 29.271568 2.758238
2005-03-08 07:44:30 51°15.26 2°50.574 3.0268 2.71687 29.317618 3.061623
2005-03-08 07:45:32 51°15.207 2°50.214 3.0287 2.717081 29.325846 2.994204
2005-03-08 07:46:32 51°15.158 2°49.863 3.0231 2.71666 29.316755 2.960494
2005-03-08 07:47:31 51°15.112 2°49.516 2.9927 2.713609 29.299316 3.129042
2005-03-08 07:48:32 51°15.063 2°49.155 3.0109 2.71687 29.330713 2.859366
2005-03-08 07:49:32 51°15.016 2°48.804 3.0282 2.722447 29.404382 3.061623
2005-03-08 07:50:31 51°14.968 2°48.457 3.0383 2.725813 29.432913 2.994204
2005-03-08 07:51:31 51°14.922 2°48.102 3.0383 2.730232 29.482985 2.960494
2005-03-08 07:52:31 51°14.876 2°47.753 3.0559 2.737702 29.556974 2.6234
2005-03-08 07:53:32 51°14.828 2°47.4 3.0701 2.747487 29.663403 2.488563
2005-03-08 07:54:32 51°14.781 2°47.048 3.0788 2.751274 29.693542 2.65711
2005-03-08 07:55:32 51°14.733 2°46.702 3.1054 2.752011 29.699814 2.893076
2005-03-08 07:56:30 51°14.689 2°46.361 3.1353 2.75885 29.759556 3.129042
2005-03-08 07:57:32 51°14.64 2°46.004 3.1622 2.766531 29.816795 2.960494
2005-03-08 07:58:31 51°14.595 2°45.665 3.1667 2.772633 29.875136 2.893076
2005-03-08 07:59:31 51°14.549 2°45.318 3.1848 2.777368 29.918043 2.994204
2005-03-08 08:00:31 51°14.512 2°44.96 3.212 2.782945 29.967585 3.19646
2005-03-08 08:01:31 51°14.486 2°44.6 3.2427 2.791888 30.044527 3.027913
2005-03-08 08:02:32 51°14.462 2°44.235 3.252 2.798938 30.10977 2.859366
2005-03-08 08:03:31 51°14.437 2°43.88 3.2733 2.804726 30.157491 2.185178
2005-03-08 08:04:31 51°14.411 2°43.516 3.2953 2.810092 30.207708 2.016631
2005-03-08 08:05:32 51°14.384 2°43.159 3.3126 2.817879 30.281544 2.08405
2005-03-08 08:06:31 51°14.359 2°42.807 3.2966 2.823456 30.350982 2.185178
2005-03-08 08:07:31 51°14.34 2°42.455 3.3579 2.827139 30.375296 2.286306
2005-03-08 08:08:31 51°14.327 2°42.096 3.3706 2.832611 30.403963 2.218888
2005-03-08 08:09:31 51°14.313 2°41.747 3.3725 2.834821 30.417513 2.320016
2005-03-08 08:10:32 51°14.298 2°41.392 3.3686 2.835136 30.415369 2.387435
2005-03-08 08:11:30 51°14.286 2°41.051 3.3776 2.831769 30.38141 2.589691
2005-03-08 08:12:31 51°14.274 2°40.701 3.3789 2.830927 30.368936 2.724529
2005-03-08 08:13:31 51°14.26 2°40.35 3.4018 2.8344 30.405816 2.387435
2005-03-08 08:14:31 51°14.247 2°40.01 3.4252 2.842397 30.472671 2.387435
2005-03-08 08:15:31 51°14.221 2°39.665 3.4296 2.846291 30.502723 2.690819
2005-03-08 08:16:31 51°14.186 2°39.317 3.4306 2.846817 30.505577 2.758238
2005-03-08 08:17:31 51°14.149 2°38.972 3.4323 2.846817 30.505577 2.960494
2005-03-08 08:18:31 51°14.116 2°38.626 3.4368 2.846817 30.504737 2.65711
2005-03-08 08:19:32 51°14.077 2°38.266 3.4319 2.847448 30.507153 2.960494
2005-03-08 08:20:32 51°14.004 2°37.924 3.4518 2.845764 30.48558 2.690819
2005-03-08 08:21:31 51°13.893 2°37.613 3.4542 2.851763 30.542987 2.994204
2005-03-08 08:22:32 51°13.78 2°37.29 3.4622 2.853236 30.554499 3.263879
2005-03-08 08:23:32 51°13.669 2°36.973 3.4925 2.854709 30.570217 3.398717
2005-03-08 08:24:31 51°13.564 2°36.665 3.4757 2.856288 30.583808 2.960494
2005-03-08 08:25:31 51°13.448 2°36.353 3.4761 2.857972 30.596113 2.791947
2005-03-08 08:26:32 51°13.331 2°36.041 3.4846 2.85934 30.611425 2.589691
2005-03-08 08:27:31 51°13.216 2°35.746 3.4846 2.859866 30.617638 2.555982
2005-03-08 08:28:31 51°13.093 2°35.449 3.4825 2.860603 30.617068 2.387435
2005-03-08 08:29:32 51°12.97 2°35.146 3.4801 2.860497 30.619195 2.320016
2005-03-08 08:30:31 51°12.849 2°34.857 3.4633 2.85934 30.60216 2.286306
2005-03-08 08:31:31 51°12.715 2°34.573 3.4205 2.857551 30.609678 2.151469
2005-03-08 08:32:32 51°12.564 2°34.296 3.386 2.851763 30.576675 1.915503
2005-03-08 08:33:31 51°12.42 2°34.04 3.3448 2.845765 30.532697 1.814375
2005-03-08 08:34:30 51°12.264 2°33.793 3.3063 2.835979 30.467387 1.848084
2005-03-08 08:35:32 51°12.088 2°33.563 3.2894 2.820299 30.300992 1.881794
2005-03-08 08:36:31 51°11.923 2°33.38 3.2422 2.815143 30.262535 2.488563
2005-03-08 08:37:31 51°11.84 2°33.289 3.1566 2.803989 30.175516 2.488563
2005-03-08 08:38:31 51°11.79 2°33.289 3.1308 2.795993 30.13584 2.252597
2005-03-08 08:39:31 51°11.764 2°33.29 3.1432 2.793152 30.126371 2.016631
2005-03-08 08:40:32 51°11.743 2°33.294 3.1161 2.791994 30.131049 2.016631
2005-03-08 08:41:31 51°11.72 2°33.292 3.1049 2.790942 30.129434 1.982922
2005-03-08 08:42:31 51°11.683 2°33.259 3.0932 2.790206 30.139131 1.881794
2005-03-08 08:43:31 51°11.642 2°33.208 3.0909 2.790101 30.144596 1.881794
2005-03-08 08:44:31 51°11.61 2°33.149 3.0784 2.790416 30.150875 1.814375
2005-03-08 08:45:32 51°11.579 2°33.092 3.0992 2.790943 30.156299 1.848084
2005-03-08 08:46:31 51°11.55 2°33.047 3.1036 2.792626 30.168781 1.915503
2005-03-08 08:47:32 51°11.516 2°33.009 3.1085 2.793468 30.172919 1.881794
2005-03-08 08:48:32 51°11.475 2°32.981 3.1207 2.795151 30.186234 1.915503
2005-03-08 08:49:31 51°11.442 2°32.944 3.1135 2.796519 30.195789 2.050341
2005-03-08 08:50:32 51°11.412 2°32.901 3.1301 2.795783 30.192908 1.982922
2005-03-08 08:51:31 51°11.394 2°32.85 3.1329 2.798098 30.203642 2.117759
2005-03-08 08:52:31 51°11.376 2°32.785 3.1401 2.798939 30.211134 2.218888
2005-03-08 08:53:32 51°11.353 2°32.721 3.1454 2.800623 30.224435 2.286306
2005-03-08 08:54:31 51°11.32 2°32.666 3.1485 2.802622 30.24401 2.252597
2005-03-08 08:55:32 51°11.286 2°32.612 3.1504 2.802833 30.24483 2.151469
2005-03-08 08:56:32 51°11.254 2°32.562 3.1676 2.805358 30.267291 2.08405
2005-03-08 08:57:32 51°11.226 2°32.512 3.1579 2.804937 30.266494 2.050341
2005-03-08 08:58:31 51°11.199 2°32.463 3.178 2.805358 30.273184 1.982922
2005-03-08 08:59:31 51°11.175 2°32.416 3.1828 2.807252 30.284764 2.016631
2005-03-08 09:00:32 51°11.149 2°32.365 3.1796 2.808199 30.290131 1.949212
2005-03-08 09:01:32 51°11.122 2°32.318 3.1794 2.809462 30.299249 1.881794
2005-03-08 09:02:31 51°11.096 2°32.27 3.1928 2.810409 30.313034 1.915503
2005-03-08 09:03:31 51°11.073 2°32.22 3.2004 2.812408 30.328377 1.814375
2005-03-08 09:04:30 51°11.049 2°32.173 3.1951 2.813039 30.335882 1.780665
2005-03-08 09:05:31 51°11.026 2°32.125 3.2032 2.813881 30.336618 1.746956
2005-03-08 09:06:31 51°11.004 2°32.079 3.2106 2.814933 30.348281 1.679537
2005-03-08 09:07:32 51°10.979 2°32.031 3.2144 2.816301 30.355265 1.645828
2005-03-08 09:08:31 51°10.954 2°31.983 3.2164 2.817038 30.360646 1.645828
2005-03-08 09:09:31 51°10.93 2°31.935 3.2317 2.818406 30.372683 1.612118
2005-03-08 09:10:31 51°10.904 2°31.885 3.2233 2.819879 30.385125 1.612118
2005-03-08 09:11:31 51°10.879 2°31.839 3.2391 2.821352 30.39419 1.578409
2005-03-08 09:12:32 51°10.852 2°31.79 3.2424 2.822825 30.408313 1.578409
2005-03-08 09:13:32 51°10.825 2°31.742 3.245 2.823667 30.414936 1.578409
2005-03-08 09:14:30 51°10.798 2°31.696 3.2465 2.825772 30.427269 1.578409
2005-03-08 09:15:32 51°10.767 2°31.648 3.2575 2.826719 30.438513 1.5447
2005-03-08 09:16:32 51°10.738 2°31.603 3.2409 2.826298 30.432672 1.5447
2005-03-08 09:17:31 51°10.713 2°31.561 3.2486 2.826298 30.436891 1.51099
2005-03-08 09:18:32 51°10.686 2°31.517 3.2533 2.82735 30.440945 1.5447
2005-03-08 09:19:32 51°10.661 2°31.461 3.2585 2.827666 30.447224 1.51099
2005-03-08 09:20:31 51°10.636 2°31.392 3.2712 2.828718 30.443681 1.5447
2005-03-08 09:21:32 51°10.605 2°31.32 3.2752 2.829876 30.469237 1.5447
2005-03-08 09:22:31 51°10.58 2°31.251 3.2696 2.831138 30.479159 1.5447
2005-03-08 09:23:31 51°10.561 2°31.188 3.2845 2.83198 30.480704 1.477281
2005-03-08 09:24:32 51°10.553 2°31.164 3.2914 2.833033 30.492347 1.409862
2005-03-08 09:25:32 51°10.547 2°31.164 3.2864 2.834716 30.507258 1.477281
2005-03-08 09:26:32 51°10.544 2°31.166 3.2946 2.835348 30.517287 1.477281
2005-03-08 09:27:31 51°10.566 2°31.125 3.2957 2.836084 30.514194 1.51099
2005-03-08 09:28:32 51°10.635 2°31.144 3.3133 2.836505 30.511584 1.477281
2005-03-08 09:29:32 51°10.705 2°31.215 3.3229 2.838294 30.529422 1.376153
2005-03-08 09:30:32 51°10.754 2°31.299 3.3421 2.840819 30.54078 1.140187
2005-03-08 09:31:31 51°10.786 2°31.38 3.3351 2.841977 30.554504 1.173896
2005-03-08 09:32:32 51°10.812 2°31.461 3.3439 2.841872 30.553256 1.308734
2005-03-08 09:33:32 51°10.83 2°31.537 3.3445 2.843345 30.551284 1.409862
2005-03-08 09:34:32 51°10.849 2°31.605 3.3271 2.842608 30.550157 1.409862
2005-03-08 09:35:31 51°10.867 2°31.668 3.3204 2.841135 30.538609 1.443571
2005-03-08 09:36:32 51°10.885 2°31.729 3.3119 2.840504 30.533659 1.409862
2005-03-08 09:37:30 51°10.899 2°31.787 3.3552 2.839767 30.532529 1.342443
2005-03-08 09:38:32 51°10.919 2°31.85 3.3275 2.839557 30.531723 1.342443
2005-03-08 09:39:32 51°10.939 2°31.912 3.3301 2.838925 30.529305 1.376153
2005-03-08 09:40:31 51°10.961 2°31.972 3.3203 2.83861 30.525562 1.443571
2005-03-08 09:41:32 51°10.985 2°32.037 3.3279 2.838715 30.520053 1.443571
2005-03-08 09:42:31 51°11.01 2°32.098 3.3275 2.838504 30.526004 1.477281
2005-03-08 09:43:31 51°11.032 2°32.159 3.3308 2.838504 30.526004 1.477281
2005-03-08 09:44:32 51°11.052 2°32.222 3.3192 2.839241 30.527135 1.51099
2005-03-08 09:45:32 51°11.072 2°32.283 3.3294 2.839872 30.527864 1.477281
2005-03-08 09:46:31 51°11.093 2°32.344 3.3223 2.840083 30.536272 1.51099
2005-03-08 09:47:32 51°11.112 2°32.405 3.3167 2.840188 30.540054 1.51099
2005-03-08 09:48:32 51°11.135 2°32.464 3.3296 2.840399 30.534101 1.409862
2005-03-08 09:49:32 51°11.157 2°32.522 3.3247 2.840609 30.536596 1.376153
2005-03-08 09:50:31 51°11.179 2°32.578 3.3391 2.840819 30.536557 1.342443
2005-03-08 09:51:31 51°11.2 2°32.639 3.3277 2.841135 30.542833 1.342443
2005-03-08 09:52:32 51°11.221 2°32.703 3.3268 2.841767 30.545248 1.308734
2005-03-08 09:53:32 51°11.244 2°32.766 3.3449 2.841872 30.546496 1.342443
2005-03-08 09:54:32 51°11.267 2°32.822 3.3366 2.841767 30.549473 1.376153
2005-03-08 09:55:31 51°11.29 2°32.873 3.3378 2.841872 30.542272 1.342443
2005-03-08 09:56:31 51°11.319 2°32.916 3.3355 2.841346 30.541104 1.376153
2005-03-08 09:57:32 51°11.35 2°32.95 3.3249 2.841135 30.538609 1.409862
2005-03-08 09:58:32 51°11.387 2°32.975 3.3354 2.841451 30.546576 1.443571
2005-03-08 09:59:32 51°11.43 2°33.006 3.3371 2.843029 30.555146 1.308734
2005-03-08 10:00:31 51°11.467 2°33.047 3.3543 2.844713 30.56665 1.241315
2005-03-08 10:01:31 51°11.502 2°33.087 3.3717 2.846818 30.58229 1.342443
2005-03-08 10:02:32 51°11.54 2°33.13 3.3612 2.847554 30.588481 1.376153
2005-03-08 10:03:32 51°11.578 2°33.173 3.3552 2.847133 30.57927 1.443571
2005-03-08 10:04:31 51°11.618 2°33.214 3.3545 2.845871 30.57107 1.51099
2005-03-08 10:05:31 51°11.655 2°33.255 3.3484 2.844818 30.566207 1.443571
2005-03-08 10:06:31 51°11.694 2°33.294 3.3413 2.84324 30.552571 1.409862
2005-03-08 10:07:32 51°11.732 2°33.338 3.3337 2.841451 30.53475 1.342443
2005-03-08 10:08:31 51°11.767 2°33.397 3.3221 2.83903 30.518729 1.275024
2005-03-08 10:09:32 51°11.798 2°33.481 3.3182 2.836926 30.498001 1.241315
2005-03-08 10:10:31 51°11.824 2°33.57 3.3064 2.834611 30.480679 1.173896
2005-03-08 10:11:31 51°11.843 2°33.671 3.3102 2.83419 30.478219 1.207606
2005-03-08 10:12:32 51°11.861 2°33.775 3.3148 2.833032 30.469554 1.072768
2005-03-08 10:13:32 51°11.879 2°33.863 3.3111 2.8344 30.479027 1.106477
2005-03-08 10:14:31 51°11.904 2°33.939 3.3207 2.835558 30.48769 1.039059
2005-03-08 10:15:31 51°11.922 2°34.006 3.3179 2.836084 30.490552 0.97164
2005-03-08 10:16:31 51°11.945 2°34.074 3.3359 2.836505 30.49048 0.93793
2005-03-08 10:17:32 51°11.962 2°34.136 3.335 2.836821 30.488318 0.836802
2005-03-08 10:18:32 51°11.97 2°34.202 3.3478 2.83682 30.483259 0.904221
2005-03-08 10:19:32 51°11.998 2°34.265 3.3378 2.836715 30.481169 0.769383
2005-03-08 10:20:32 51°12.025 2°34.305 3.3249 2.836926 30.485349 0.870512
2005-03-08 10:21:32 51°12.042 2°34.327 3.334 2.836189 30.483365 1.072768
2005-03-08 10:22:32 51°12.048 2°34.332 3.338 2.835663 30.477973 1.140187
2005-03-08 10:23:31 51°12.036 2°34.343 3.3188 2.834821 30.467996 1.140187
2005-03-08 10:24:31 51°12.018 2°34.359 3.3297 2.834084 30.460109 1.072768
2005-03-08 10:25:31 51°12.007 2°34.386 3.3295 2.835137 30.470894 1.005349
2005-03-08 10:26:31 51°11.994 2°34.397 3.3838 2.838083 30.496535 1.072768
2005-03-08 10:27:31 51°11.983 2°34.359 3.3618 2.849554 30.59357 1.275024
2005-03-08 10:28:31 51°11.989 2°34.339 3.3515 2.842924 30.52773 1.039059
2005-03-08 10:29:32 51°11.992 2°34.353 3.3618 2.842187 30.528285 1.072768
2005-03-08 10:30:31 51°11.992 2°34.386 3.3631 2.846502 30.568413 1.140187
2005-03-08 10:31:31 51°11.991 2°34.398 3.3597 2.845344 30.563992 1.207606
2005-03-08 10:32:32 51°12 2°34.323 3.3708 2.845344 30.555548 1.241315
2005-03-08 10:33:31 51°12.021 2°34.213 3.3597 2.842398 30.52909 1.106477
2005-03-08 10:34:31 51°12.064 2°34.155 3.338 2.840188 30.508819 1.072768
2005-03-08 10:35:32 51°12.091 2°34.173 3.3328 2.837452 30.491584 0.97164
2005-03-08 10:36:32 51°12.104 2°34.219 3.3361 2.836715 30.482855 1.005349
2005-03-08 10:37:32 51°12.106 2°34.277 3.3667 2.836294 30.484612 1.072768
2005-03-08 10:38:31 51°12.136 2°34.333 3.3869 2.849659 30.601577 1.578409
2005-03-08 10:39:31 51°12.287 2°34.389 3.348 2.8525 30.618315 1.679537
2005-03-08 10:40:32 51°12.499 2°34.511 3.3315 2.836715 30.481169 1.275024
2005-03-08 10:41:32 51°12.691 2°34.75 3.3236 2.83419 30.458828 1.241315
2005-03-08 10:42:31 51°12.89 2°34.937 3.291 2.829349 30.425039 1.275024
2005-03-08 10:43:31 51°13.109 2°34.925 3.5044 2.83219 30.435137 1.039059
2005-03-08 10:44:31 51°13.327 2°34.875 3.574 2.876494 30.775105 1.173896
2005-03-08 10:45:32 51°13.548 2°34.825 3.6174 2.887544 30.854686 1.275024
2005-03-08 10:46:32 51°13.767 2°34.779 3.6157 2.895647 30.91547 1.241315
2005-03-08 10:47:31 51°13.918 2°34.969 3.6775 2.897015 30.907026 1.207606
2005-03-08 10:48:31 51°13.912 2°35.353 3.6246 2.897331 30.914129 1.106477
2005-03-08 10:49:32 51°13.921 2°35.751 3.626 2.894068 30.897719 1.140187
2005-03-08 10:50:32 51°13.986 2°36.131 3.6296 2.894279 30.897658 1.477281
2005-03-08 10:51:32 51°14.073 2°36.453 3.6166 2.894595 30.902224 1.645828
2005-03-08 10:52:32 51°14.182 2°36.501 3.6343 2.894489 30.898444 1.645828
2005-03-08 10:53:31 51°14.286 2°36.49 3.6324 2.894805 30.898776 1.713247
2005-03-08 10:54:31 51°14.395 2°36.48 3.6141 2.894068 30.896872 1.746956
2005-03-08 10:55:32 51°14.505 2°36.529 3.6231 2.894384 30.892971 1.679537
2005-03-08 10:56:31 51°14.545 2°36.803 3.6402 2.895542 30.90322 1.881794
2005-03-08 10:57:33 51°14.497 2°37.183 3.6276 2.895437 30.90452 1.915503
2005-03-08 10:58:31 51°14.431 2°37.544 3.604 2.895121 30.899955 2.185178
2005-03-08 10:59:32 51°14.365 2°37.929 3.6094 2.894174 30.906582 2.454853
2005-03-08 11:00:32 51°14.288 2°38.291 3.5929 2.893437 30.902984 2.421144
2005-03-08 11:01:31 51°14.147 2°38.582 3.5613 2.888912 30.864042 2.08405
2005-03-08 11:02:32 51°13.958 2°38.812 3.4803 2.877441 30.773597 1.645828
2005-03-08 11:03:32 51°13.751 2°38.888 3.4752 2.861339 30.656131 1.814375
2005-03-08 11:04:32 51°13.553 2°38.78 3.5171 2.863654 30.657317 1.780665
2005-03-08 11:05:31 51°13.371 2°38.637 3.5135 2.865864 30.649679 2.185178
2005-03-08 11:06:32 51°13.196 2°38.454 3.4681 2.862286 30.620097 2.320016
2005-03-08 11:07:32 51°13.022 2°38.272 3.4059 2.851973 30.553888 2.320016
2005-03-08 11:08:32 51°12.851 2°38.094 3.3572 2.840714 30.477145 2.050341
2005-03-08 11:09:32 51°12.682 2°37.909 3.3079 2.830612 30.40298 2.454853
2005-03-08 11:10:32 51°12.509 2°37.73 3.287 2.823561 30.35643 3.162751
2005-03-08 11:11:32 51°12.339 2°37.548 3.2592 2.819142 30.309085 3.904358
2005-03-08 11:12:32 51°12.169 2°37.364 3.252 2.815669 30.297293 4.005486
2005-03-08 11:13:33 51°11.994 2°37.179 3.2136 2.812723 30.279132 3.634683
2005-03-08 11:14:31 51°11.829 2°36.996 3.2342 2.811987 30.291393 3.398717
2005-03-08 11:15:32 51°11.657 2°36.809 3.2459 2.817038 30.330333 3.19646
2005-03-08 11:16:32 51°11.485 2°36.621 3.2668 2.821668 30.382766 3.061623
2005-03-08 11:17:32 51°11.305 2°36.454 3.2459 2.825666 30.413371 3.027913
2005-03-08 11:18:32 51°11.122 2°36.291 3.2581 2.822825 30.395664 2.825657
2005-03-08 11:19:31 51°10.944 2°36.127 3.2634 2.824614 30.415215 2.724529
2005-03-08 11:20:32 51°10.76 2°35.96 3.2864 2.829244 30.451612 2.825657
2005-03-08 11:21:32 51°10.561 2°35.854 3.308 2.835032 30.495799 2.825657
2005-03-08 11:22:31 51°10.365 2°35.765 3.325 2.839557 30.539328 2.859366
2005-03-08 11:23:32 51°10.158 2°35.666 3.2584 2.845345 30.596124 2.926785
2005-03-08 11:24:32 51°9.96 2°35.574 3.2086 2.837242 30.574498 2.555982
2005-03-08 11:25:33 51°9.766 2°35.475 3.0662 2.821563 30.47618 1.949212
2005-03-08 11:26:32 51°9.575 2°35.37 3.0517 2.805254 30.369073 1.915503
2005-03-08 11:27:33 51°9.382 2°35.243 3.0312 2.801992 30.349632 1.915503
2005-03-08 11:28:32 51°9.204 2°35.096 3.0203 2.801887 30.343292 2.151469
2005-03-08 11:29:32 51°9.033 2°34.928 3.0421 2.805254 30.384335 2.758238
2005-03-08 11:30:32 51°8.879 2°34.74 3.0098 2.801255 30.348466 2.960494
2005-03-08 11:31:31 51°8.722 2°34.558 3.0631 2.802413 30.359744 3.297589
2005-03-08 11:32:31 51°8.602 2°34.425 2.9958 2.802413 30.352962 2.555982
2005-03-08 11:33:31 51°8.582 2°34.273 2.9731 2.793784 30.274496 3.095332
2005-03-08 11:34:33 51°8.623 2°34.242 2.9852 2.791365 30.274363 3.19646
2005-03-08 11:35:32 51°8.636 2°34.278 3.0048 2.794942 30.306953 2.859366
2005-03-08 11:36:32 51°8.641 2°34.322 3.0067 2.797257 30.323595 2.791947
2005-03-08 11:37:31 51°8.647 2°34.363 3.0016 2.798099 30.331957 2.724529
2005-03-08 11:38:33 51°8.651 2°34.405 3.0118 2.797467 30.325262 2.589691
2005-03-08 11:39:31 51°8.655 2°34.443 3.0168 2.797993 30.316294 2.555982
2005-03-08 11:40:33 51°8.658 2°34.483 3.0037 2.796415 30.310996 2.589691
2005-03-08 11:41:33 51°8.661 2°34.521 3.0087 2.795889 30.301323 2.387435
2005-03-08 11:42:32 51°8.665 2°34.56 3.0206 2.796626 30.305886 2.320016
2005-03-08 11:43:33 51°8.674 2°34.632 3.0123 2.797467 30.309164 2.08405
2005-03-08 11:44:32 51°8.653 2°34.723 2.9855 2.795889 30.29709 2.589691
2005-03-08 11:45:32 51°8.611 2°34.734 2.9879 2.792417 30.266619 3.129042
2005-03-08 11:46:32 51°8.598 2°34.702 2.9958 2.791259 30.260408 3.027913
2005-03-08 11:47:31 51°8.606 2°34.643 2.9969 2.790943 30.254098 2.825657
2005-03-08 11:48:33 51°8.603 2°34.558 3.0019 2.791364 30.259972 2.859366
2005-03-08 11:49:32 51°8.591 2°34.474 3.011 2.794205 30.282908 2.960494
2005-03-08 11:50:32 51°8.577 2°34.405 3.0189 2.795784 30.294986 2.758238
2005-03-08 11:51:32 51°8.568 2°34.338 3.0199 2.795363 30.277269 2.387435
2005-03-08 11:52:32 51°8.544 2°34.287 3.0333 2.795889 30.283549 2.421144
2005-03-08 11:53:32 51°8.523 2°34.226 3.0437 2.797678 30.29475 2.320016
2005-03-08 11:54:33 51°8.502 2°34.161 3.0357 2.797572 30.29434 2.252597
2005-03-08 11:55:32 51°8.48 2°34.097 3.0482 2.79894 30.301359 2.151469
2005-03-08 11:56:32 51°8.457 2°34.033 3.0423 2.799045 30.299231 2.185178
2005-03-08 11:57:33 51°8.434 2°33.966 3.0383 2.79652 30.275864 2.185178
2005-03-08 11:58:31 51°8.41 2°33.904 3.0466 2.797046 30.284678 2.117759
2005-03-08 11:59:32 51°8.385 2°33.838 3.0421 2.801571 30.339524 1.982922
2005-03-08 12:00:32 51°8.361 2°33.772 3.0382 2.802307 30.348316 1.915503
2005-03-08 12:01:32 51°8.336 2°33.705 3.036 2.801887 30.346681 1.982922
2005-03-08 12:02:33 51°8.311 2°33.636 3.0249 2.800729 30.334558 1.982922
2005-03-08 12:03:32 51°8.288 2°33.568 3.0309 2.799572 30.326669 2.117759
2005-03-08 12:04:32 51°8.265 2°33.497 3.016 2.798204 30.316266 2.185178
2005-03-08 12:05:31 51°8.241 2°33.427 3.016 2.797783 30.312087 2.353725
2005-03-08 12:06:32 51°8.214 2°33.355 3.0183 2.797678 30.31083 2.286306
2005-03-08 12:07:31 51°8.19 2°33.285 3.0284 2.798309 30.321758 2.252597
2005-03-08 12:08:32 51°8.165 2°33.213 3.0202 2.798204 30.311185 2.117759
2005-03-08 12:09:31 51°8.139 2°33.143 3.0343 2.797678 30.304057 2.151469
2005-03-08 12:10:32 51°8.114 2°33.07 3.0201 2.797046 30.301599 2.218888
2005-03-08 12:11:32 51°8.092 2°32.994 3.024 2.797678 30.309984 2.151469
2005-03-08 12:12:31 51°8.068 2°32.92 3.0458 2.799677 30.326232 2.185178
2005-03-08 12:13:32 51°8.045 2°32.848 3.0654 2.804307 30.356925 2.016631
2005-03-08 12:14:33 51°8.02 2°32.774 3.0639 2.805043 30.364867 1.915503
2005-03-08 12:15:33 51°7.994 2°32.704 3.0916 2.810831 30.415259 1.881794
2005-03-08 12:16:32 51°7.969 2°32.636 3.0867 2.813777 30.436825 1.814375
2005-03-08 12:17:32 51°7.946 2°32.567 3.0761 2.811778 30.421465 1.881794
2005-03-08 12:18:32 51°7.921 2°32.498 3.0747 2.811252 30.416886 1.915503
2005-03-08 12:19:33 51°7.894 2°32.43 3.0896 2.812935 30.438665 1.881794
2005-03-08 12:20:33 51°7.868 2°32.359 3.1046 2.818197 30.487831 1.881794
2005-03-08 12:21:31 51°7.848 2°32.288 3.1196 2.822195 30.522764 1.881794
2005-03-08 12:22:33 51°7.825 2°32.216 3.0988 2.818617 30.478409 1.814375
2005-03-08 12:23:32 51°7.798 2°32.149 3.0934 2.81504 30.447639 1.848084
2005-03-08 12:24:33 51°7.782 2°32.076 3.0857 2.81304 30.426345 1.848084
2005-03-08 12:25:31 51°7.788 2°32.008 3.0916 2.811567 30.4215 1.848084
2005-03-08 12:26:32 51°7.824 2°31.974 3.083 2.812619 30.430657 1.814375
2005-03-08 12:27:32 51°7.853 2°31.992 3.0892 2.815566 30.465799 1.881794
2005-03-08 12:28:32 51°7.882 2°32.03 3.1125 2.818512 30.489896 1.915503
2005-03-08 12:29:32 51°7.913 2°32.113 3.1382 2.825352 30.54424 1.982922
2005-03-08 12:30:32 51°7.918 2°32.21 3.1258 2.829246 30.581285 2.050341
2005-03-08 12:31:33 51°7.926 2°32.306 3.1183 2.825141 30.53493 1.982922
2005-03-08 12:32:32 51°7.943 2°32.399 3.1081 2.819143 30.482134 1.915503
2005-03-08 12:33:33 51°7.963 2°32.495 3.1038 2.815566 30.443731 2.016631
2005-03-08 12:34:32 51°7.98 2°32.591 3.1035 2.814408 30.440111 2.016631
2005-03-08 12:35:31 51°7.991 2°32.679 3.1011 2.814198 30.435057 1.982922
2005-03-08 12:36:32 51°8.002 2°32.759 3.0979 2.813987 30.435941 1.915503
2005-03-08 12:37:31 51°8.016 2°32.826 3.0813 2.811462 30.421093 2.016631
2005-03-08 12:38:32 51°8.033 2°32.89 3.0602 2.809358 30.407864 2.151469
2005-03-08 12:39:33 51°8.05 2°32.962 3.0688 2.807358 30.385707 2.185178
2005-03-08 12:40:32 51°8.068 2°33.035 3.064 2.806622 30.374377 2.185178
2005-03-08 12:41:32 51°8.09 2°33.109 3.0484 2.802833 30.335116 2.151469
2005-03-08 12:42:32 51°8.113 2°33.18 3.0375 2.797888 30.287959 2.185178
2005-03-08 12:43:33 51°8.138 2°33.248 3.0313 2.795363 30.265434 2.320016
2005-03-08 12:44:31 51°8.163 2°33.311 3.0255 2.792837 30.244592 2.387435
2005-03-08 12:45:32 51°8.185 2°33.377 3.0232 2.790628 30.225819 2.454853
2005-03-08 12:46:31 51°8.206 2°33.444 3.0125 2.789786 30.219993 2.454853
2005-03-08 12:47:32 51°8.227 2°33.516 3.0084 2.789049 30.216266 2.589691
2005-03-08 12:48:32 51°8.246 2°33.588 3.0148 2.789049 30.214578 2.555982
2005-03-08 12:49:32 51°8.26 2°33.663 3.0217 2.789365 30.214125 2.488563
2005-03-08 12:50:31 51°8.272 2°33.738 3.028 2.789891 30.21534 2.421144
2005-03-08 12:51:33 51°8.289 2°33.813 3.0384 2.790522 30.21781 2.387435
2005-03-08 12:52:32 51°8.306 2°33.883 3.0349 2.791364 30.223635 2.353725
2005-03-08 12:53:32 51°8.325 2°33.952 3.0453 2.792311 30.228182 2.320016
2005-03-08 12:54:32 51°8.345 2°34.02 3.0538 2.793468 30.236926 2.286306
2005-03-08 12:55:32 51°8.369 2°34.083 3.0593 2.795362 30.251076 2.252597
2005-03-08 12:56:31 51°8.394 2°34.142 3.065 2.796309 30.258149 2.320016
2005-03-08 12:57:32 51°8.421 2°34.2 3.0747 2.797993 30.268093 2.218888
2005-03-08 12:58:31 51°8.447 2°34.257 3.0722 2.800624 30.296923 2.320016
2005-03-08 12:59:32 51°8.473 2°34.318 3.0617 2.800097 30.29234 2.353725
2005-03-08 13:00:33 51°8.502 2°34.373 3.0551 2.798624 30.281533 2.353725
2005-03-08 13:01:33 51°8.53 2°34.43 3.0599 2.797888 30.274438 2.387435
2005-03-08 13:02:31 51°8.558 2°34.485 3.0604 2.796415 30.261937 2.421144
2005-03-08 13:03:32 51°8.591 2°34.54 3.0556 2.795783 30.254407 2.387435
2005-03-08 13:04:33 51°8.631 2°34.607 3.051 2.795152 30.248566 2.387435
2005-03-08 13:05:33 51°8.682 2°34.674 3.049 2.794415 30.242313 2.387435
2005-03-08 13:06:31 51°8.732 2°34.742 3.0496 2.7941 30.240236 2.387435
2005-03-08 13:07:32 51°8.785 2°34.825 3.0299 2.793258 30.23948 2.488563
2005-03-08 13:08:33 51°8.838 2°34.907 3.0271 2.792416 30.231969 2.522272
2005-03-08 13:09:31 51°8.874 2°34.958 3.0182 2.790943 30.222833 2.421144
2005-03-08 13:10:33 51°8.899 2°34.998 3.0185 2.790101 30.21954 2.454853
2005-03-08 13:11:32 51°8.916 2°35.031 3.0169 2.78947 30.217914 2.488563
2005-03-08 13:12:32 51°8.93 2°35.059 3.0281 2.789154 30.213301 2.454853
2005-03-08 13:13:32 51°8.939 2°35.083 3.0182 2.789154 30.209925 2.387435
2005-03-08 13:14:32 51°8.955 2°35.111 3.0357 2.789365 30.209904 2.353725
2005-03-08 13:15:33 51°9.025 2°35.111 3.0313 2.789891 30.210276 2.286306
2005-03-08 13:16:32 51°9.07 2°35.095 3.032 2.790101 30.213631 2.286306
2005-03-08 13:17:32 51°9.099 2°35.092 3.0443 2.792206 30.229459 2.218888
2005-03-08 13:18:32 51°9.119 2°35.093 3.0551 2.792206 30.21596 2.050341
2005-03-08 13:19:32 51°9.133 2°35.081 3.0684 2.795257 30.242226 2.050341
2005-03-08 13:20:32 51°9.135 2°35.035 3.0671 2.799677 30.287322 2.016631
2005-03-08 13:21:31 51°9.118 2°34.999 3.071 2.802307 30.321226 1.915503
2005-03-08 13:22:31 51°9.098 2°34.984 3.0645 2.80357 30.331209 1.814375
2005-03-08 13:23:32 51°9.08 2°34.979 3.0746 2.80136 30.306551 1.848084
2005-03-08 13:24:32 51°9.07 2°34.981 3.0606 2.798519 30.276899 1.814375
2005-03-08 13:25:33 51°9.056 2°34.976 3.0607 2.796941 30.258924 1.848084
2005-03-08 13:26:32 51°9.024 2°34.95 3.053 2.794941 30.241837 1.915503
2005-03-08 13:27:33 51°8.94 2°34.968 3.0462 2.793679 30.238592 1.949212
2005-03-08 13:28:32 51°8.9 2°35.061 3.0329 2.79168 30.224869 2.050341
2005-03-08 13:29:33 51°8.915 2°35.147 3.0447 2.79168 30.227402 2.08405
2005-03-08 13:30:33 51°8.941 2°35.197 3.0429 2.792942 30.23487 2.286306
2005-03-08 13:31:32 51°8.961 2°35.269 3.038 2.793048 30.237814 2.320016
2005-03-08 13:32:31 51°8.979 2°35.349 3.0513 2.793468 30.241991 2.252597
2005-03-08 13:33:33 51°9.007 2°35.428 3.0549 2.793995 30.243202 2.286306
2005-03-08 13:34:32 51°9.033 2°35.501 3.0446 2.793889 30.23857 2.454853
2005-03-08 13:35:31 51°9.055 2°35.575 3.0433 2.792942 30.23065 2.286306
2005-03-08 13:36:32 51°9.075 2°35.647 3.0544 2.792732 30.221391 2.286306
2005-03-08 13:37:32 51°9.091 2°35.719 3.063 2.79168 30.210529 2.353725
2005-03-08 13:38:33 51°9.103 2°35.792 3.0536 2.791153 30.200883 2.252597
2005-03-08 13:39:32 51°9.119 2°35.858 3.0477 2.790733 30.200078 2.421144
2005-03-08 13:40:32 51°9.14 2°35.921 3.0375 2.789575 30.193017 2.454853
2005-03-08 13:41:32 51°9.162 2°35.985 3.0415 2.787471 30.176342 2.555982
2005-03-08 13:42:33 51°9.188 2°36.05 3.0243 2.785156 30.151254 2.555982
2005-03-08 13:43:32 51°9.213 2°36.115 3.0315 2.78484 30.150014 2.555982
2005-03-08 13:44:33 51°9.239 2°36.182 3.0353 2.785577 30.158802 2.522272
2005-03-08 13:45:32 51°9.263 2°36.25 3.0411 2.785892 30.15583 2.421144
2005-03-08 13:46:33 51°9.287 2°36.32 3.0439 2.786524 30.162518 2.353725
2005-03-08 13:47:33 51°9.308 2°36.393 3.0398 2.787155 30.170891 2.151469
2005-03-08 13:48:32 51°9.328 2°36.463 3.0444 2.787576 30.175069 2.185178
2005-03-08 13:49:32 51°9.348 2°36.536 3.0224 2.786313 30.165904 2.218888
2005-03-08 13:50:33 51°9.371 2°36.607 3.02 2.783578 30.13916 2.387435
2005-03-08 13:51:33 51°9.394 2°36.677 3.0261 2.781578 30.116151 2.555982
2005-03-08 13:52:32 51°9.418 2°36.744 3.0193 2.780316 30.101088 2.555982
2005-03-08 13:53:32 51°9.445 2°36.808 3.0204 2.779053 30.090228 2.6234
2005-03-08 13:54:33 51°9.476 2°36.869 3.0247 2.778316 30.07892 2.65711
2005-03-08 13:55:33 51°9.506 2°36.93 3.0285 2.778422 30.079335 2.589691
2005-03-08 13:56:32 51°9.536 2°36.989 3.0357 2.779263 30.082654 2.555982
2005-03-08 13:57:33 51°9.563 2°37.052 3.0336 2.779684 30.085153 2.488563
2005-03-08 13:58:33 51°9.59 2°37.11 3.0219 2.778737 30.07974 2.454853
2005-03-08 13:59:33 51°9.619 2°37.168 3.0272 2.776843 30.065549 2.454853
2005-03-08 14:00:31 51°9.65 2°37.22 3.0167 2.776212 30.050461 2.454853
2005-03-08 14:01:33 51°9.687 2°37.275 3.0129 2.774949 30.041277 2.454853
2005-03-08 14:02:33 51°9.725 2°37.328 3.0251 2.774108 30.035433 2.488563
2005-03-08 14:03:32 51°9.757 2°37.384 3.0118 2.773476 30.030419 2.488563
2005-03-08 14:04:33 51°9.792 2°37.438 3.0017 2.771688 30.018309 2.522272
2005-03-08 14:05:33 51°9.83 2°37.492 2.9856 2.769373 29.998237 2.555982
2005-03-08 14:06:33 51°9.866 2°37.559 2.9697 2.765164 29.967289 2.488563
2005-03-08 14:07:33 51°9.897 2°37.631 2.9591 2.76285 29.947196 2.421144
2005-03-08 14:08:32 51°9.916 2°37.676 2.9498 2.760956 29.938828 2.320016
2005-03-08 14:09:33 51°9.929 2°37.707 2.954 2.760535 29.931286 2.454853
2005-03-08 14:10:32 51°9.938 2°37.728 2.9533 2.76043 29.93003 2.421144
2005-03-08 14:11:32 51°9.942 2°37.744 2.9475 2.759904 29.929612 2.421144
2005-03-08 14:12:33 51°9.944 2°37.758 2.9771 2.76043 29.92584 2.353725
2005-03-08 14:13:31 51°9.945 2°37.769 2.9836 2.762323 29.926676 2.185178
2005-03-08 14:14:33 51°9.942 2°37.782 2.986 2.76306 29.927932 2.050341
2005-03-08 14:15:32 51°9.938 2°37.794 2.9802 2.762955 29.930862 1.949212
2005-03-08 14:16:33 51°9.956 2°37.867 2.9911 2.762113 29.930026 1.848084
2005-03-08 14:17:33 51°9.882 2°37.992 2.9759 2.763796 29.93672 2.286306
2005-03-08 14:18:33 51°9.756 2°38.089 2.9897 2.763796 29.948446 2.522272
2005-03-08 14:19:33 51°9.637 2°38.181 2.9891 2.762113 29.932538 2.522272
2005-03-08 14:20:31 51°9.594 2°38.272 2.9986 2.763586 29.931698 2.387435
2005-03-08 14:21:32 51°9.562 2°38.339 3.0172 2.764848 29.930025 2.353725
2005-03-08 14:22:32 51°9.52 2°38.474 3.0665 2.767058 29.933789 2.6234
2005-03-08 14:23:33 51°9.539 2°38.599 3.0443 2.77295 29.977234 2.387435
2005-03-08 14:24:32 51°9.554 2°38.683 3.0626 2.773371 29.984757 2.320016
2005-03-08 14:25:33 51°9.563 2°38.761 3.0619 2.769688 29.936718 2.252597
2005-03-08 14:26:33 51°9.565 2°38.839 3.0487 2.768215 29.923352 2.117759
2005-03-08 14:27:33 51°9.571 2°38.912 3.0437 2.767163 29.909153 2.08405
2005-03-08 14:28:32 51°9.581 2°38.981 3.0505 2.767268 29.909571 2.08405
2005-03-08 14:29:32 51°9.592 2°39.053 3.0489 2.766531 29.906642 2.151469
2005-03-08 14:30:33 51°9.604 2°39.125 3.0561 2.766742 29.904976 2.151469
2005-03-08 14:31:32 51°9.615 2°39.196 3.0753 2.76832 29.919596 2.185178
2005-03-08 14:32:33 51°9.625 2°39.269 3.0726 2.772318 29.953003 2.252597
2005-03-08 14:33:33 51°9.635 2°39.342 3.0606 2.775054 29.988078 2.151469
2005-03-08 14:34:33 51°9.64 2°39.412 3.0626 2.771056 29.9505 2.151469
2005-03-08 14:35:33 51°9.645 2°39.485 3.0498 2.77074 29.937556 2.151469
2005-03-08 14:36:31 51°9.65 2°39.554 3.0441 2.76832 29.93045 2.151469
2005-03-08 14:37:33 51°9.654 2°39.628 3.0493 2.765269 29.89244 2.185178
2005-03-08 14:38:33 51°9.661 2°39.702 3.0446 2.762533 29.854867 2.218888
2005-03-08 14:39:32 51°9.672 2°39.773 3.0503 2.759061 29.821023 2.218888
2005-03-08 14:40:32 51°9.685 2°39.844 3.0365 2.75843 29.811011 2.151469
2005-03-08 14:41:32 51°9.698 2°39.916 3.0282 2.753274 29.761272 2.151469
2005-03-08 14:42:33 51°9.709 2°39.986 3.0221 2.74896 29.719043 2.117759
2005-03-08 14:43:33 51°9.72 2°40.056 3.0127 2.74654 29.69106 2.117759
2005-03-08 14:44:33 51°9.732 2°40.125 3.0205 2.743594 29.664272 2.050341
2005-03-08 14:45:33 51°9.744 2°40.194 2.9942 2.738755 29.614095 2.117759
2005-03-08 14:46:33 51°9.756 2°40.264 3.0043 2.732337 29.545115 2.08405
2005-03-08 14:47:32 51°9.768 2°40.331 3.023 2.731284 29.525162 2.050341
2005-03-08 14:48:32 51°9.783 2°40.398 3.0184 2.728864 29.488121 1.982922
2005-03-08 14:49:31 51°9.797 2°40.462 2.9987 2.725708 29.451393 2.08405
2005-03-08 14:50:33 51°9.812 2°40.529 3.0034 2.720027 29.396952 2.151469
2005-03-08 14:51:32 51°9.826 2°40.593 3.0028 2.717923 29.371096 2.050341
2005-03-08 14:52:32 51°9.842 2°40.657 2.9919 2.719922 29.396522 2.151469
2005-03-08 14:53:33 51°9.858 2°40.721 2.9801 2.721816 29.42728 2.286306
2005-03-08 14:54:33 51°9.873 2°40.785 2.9528 2.71887 29.421004 2.218888
2005-03-08 14:55:31 51°9.888 2°40.846 2.9609 2.712768 29.351606 2.185178
2005-03-08 14:56:31 51°9.906 2°40.914 2.9358 2.71119 29.327065 2.252597
2005-03-08 14:57:32 51°9.921 2°40.993 2.9545 2.707613 29.303334 2.353725
2005-03-08 14:58:33 51°9.926 2°41.074 2.9553 2.705403 29.263906 2.320016
2005-03-08 14:59:33 51°9.911 2°41.159 2.9404 2.703615 29.245067 2.421144
2005-03-08 15:00:33 51°9.882 2°41.236 3.058 2.671317 28.833409 2.353725
2005-03-08 15:01:33 51°9.852 2°41.29 3.0892 2.619246 28.142707 2.185178
2005-03-08 15:02:32 51°9.827 2°41.325 3.0872 2.591582 27.791358 2.185178
2005-03-08 15:03:32 51°9.806 2°41.352 3.0857 2.585272 27.72626 2.050341
2005-03-08 15:04:33 51°9.791 2°41.385 3.069 2.543727 27.216679 1.814375
2005-03-08 15:05:32 51°9.808 2°41.425 3.0104 2.602417 27.965816 2.050341
2005-03-08 15:06:33 51°9.837 2°41.427 3.0061 2.623875 28.249373 2.117759
2005-03-08 15:07:32 51°9.859 2°41.41 2.9967 2.629345 28.31255 2.151469
2005-03-08 15:08:33 51°9.879 2°41.391 2.981 2.642073 28.46887 2.218888
2005-03-08 15:09:33 51°9.896 2°41.375 2.981 2.654275 28.630318 2.252597
2005-03-08 15:10:33 51°9.913 2°41.354 2.9819 2.655853 28.647439 2.252597
2005-03-08 15:11:33 51°9.93 2°41.327 2.957 2.663638 28.747857 2.286306
2005-03-08 15:12:33 51°9.944 2°41.296 2.9663 2.66711 28.796326 2.286306
2005-03-08 15:13:32 51°9.956 2°41.259 2.9499 2.667636 28.800963 2.320016
2005-03-08 15:14:32 51°9.965 2°41.219 2.9676 2.674053 28.890126 2.353725
2005-03-08 15:15:32 51°9.965 2°41.182 2.9566 2.66732 28.789967 2.252597
2005-03-08 15:16:33 51°9.958 2°41.154 2.9383 2.682259 28.998236 2.387435
2005-03-08 15:17:33 51°9.946 2°41.136 2.9657 2.680996 28.975107 2.286306
2005-03-08 15:18:33 51°9.935 2°41.127 2.9514 2.678471 28.930509 2.488563
2005-03-08 15:19:32 51°9.925 2°41.119 2.96 2.686782 29.040676 2.555982
2005-03-08 15:20:33 51°9.915 2°41.109 3.0475 2.66995 28.826035 2.286306
2005-03-08 15:21:33 51°9.904 2°41.098 3.0691 2.648069 28.516034 2.151469
2005-03-08 15:22:33 51°9.891 2°41.084 3.0378 2.634604 28.331307 2.08405
2005-03-08 15:23:33 51°9.866 2°41.012 3.0491 2.628397 28.247688 2.08405
2005-03-08 15:24:33 51°9.911 2°40.914 3.0638 2.636392 28.358782 2.117759
2005-03-08 15:25:33 51°9.973 2°40.996 3.0322 2.651119 28.556952 2.218888
2005-03-08 15:26:33 51°10.058 2°41.212 3.0277 2.631448 28.293993 2.050341
2005-03-08 15:27:33 51°10.163 2°41.484 2.9862 2.654906 28.593841 2.08405
2005-03-08 15:28:32 51°10.26 2°41.776 3.0274 2.700143 29.148263 2.117759
2005-03-08 15:29:32 51°10.356 2°42.07 2.935 2.735808 29.572408 1.915503
2005-03-08 15:30:33 51°10.452 2°42.363 2.9376 2.731811 29.612514 1.881794
2005-03-08 15:31:32 51°10.549 2°42.653 2.9647 2.732021 29.582697 1.645828
2005-03-08 15:32:32 51°10.644 2°42.948 2.932 2.736124 29.607594 1.612118
2005-03-08 15:33:32 51°10.739 2°43.242 2.9422 2.738019 29.66916 1.814375
2005-03-08 15:34:33 51°10.838 2°43.538 2.947 2.734967 29.622799 1.848084
2005-03-08 15:35:33 51°10.936 2°43.832 2.9119 2.734862 29.624032 1.814375
2005-03-08 15:36:33 51°11.035 2°44.124 2.9073 2.724236 29.527077 1.881794
2005-03-08 15:37:33 51°11.134 2°44.416 2.9011 2.719186 29.472602 1.848084
2005-03-08 15:38:32 51°11.232 2°44.705 2.8857 2.716977 29.450367 1.848084
2005-03-08 15:39:33 51°11.329 2°44.999 2.8942 2.712979 29.41091 1.848084
2005-03-08 15:40:33 51°11.421 2°45.293 2.8923 2.710875 29.385801 1.848084
2005-03-08 15:41:31 51°11.509 2°45.579 2.8973 2.709402 29.366579 1.780665
2005-03-08 15:42:33 51°11.604 2°45.885 2.8951 2.709297 29.35956 1.746956
2005-03-08 15:43:33 51°11.697 2°46.182 2.8905 2.708034 29.349438 1.780665
2005-03-08 15:44:33 51°11.788 2°46.478 2.8857 2.706456 29.33637 1.780665
2005-03-08 15:45:33 51°11.883 2°46.771 2.8999 2.705088 29.314297 1.848084
2005-03-08 15:46:33 51°11.978 2°47.061 2.8903 2.703826 29.289383 1.814375
2005-03-08 15:47:33 51°12.078 2°47.349 2.9161 2.701827 29.272115 1.915503
2005-03-08 15:48:33 51°12.177 2°47.637 2.8883 2.7033 29.276546 1.780665
2005-03-08 15:49:32 51°12.274 2°47.923 2.9046 2.699828 29.244999 1.814375
2005-03-08 15:50:33 51°12.372 2°48.215 2.899 2.698671 29.232022 1.780665
2005-03-08 15:51:33 51°12.469 2°48.505 2.9084 2.696777 29.209447 1.780665
2005-03-08 15:52:33 51°12.566 2°48.796 2.9027 2.697619 29.208835 1.645828
2005-03-08 15:53:33 51°12.662 2°49.083 2.8947 2.691832 29.15051 1.645828
2005-03-08 15:54:33 51°12.759 2°49.37 2.8917 2.687414 29.104384 1.679537
2005-03-08 15:55:33 51°12.853 2°49.658 2.9001 2.684153 29.062261 1.713247
2005-03-08 15:56:33 51°12.947 2°49.945 2.8993 2.68268 29.045528 1.746956
2005-03-08 15:57:33 51°13.041 2°50.231 2.9167 2.680365 29.011448 1.746956
2005-03-08 15:58:33 51°13.134 2°50.518 2.9181 2.679629 28.996988 1.848084
2005-03-08 15:59:33 51°13.227 2°50.806 2.9192 2.678998 28.982162 1.881794
2005-03-08 16:00:33 51°13.321 2°51.093 2.9451 2.67742 28.960133 1.814375
2005-03-08 16:01:33 51°13.417 2°51.382 2.9632 2.682364 28.987315 1.713247
2005-03-08 16:02:33 51°13.511 2°51.671 2.9395 2.682153 28.984002 1.746956
2005-03-08 16:03:33 51°13.61 2°51.961 3.1223 2.673842 28.864201 1.780665
2005-03-08 16:04:33 51°13.706 2°52.252 3.1232 2.663427 28.653221 1.578409
2005-03-08 16:05:33 51°13.798 2°52.54 3.1721 2.631973 28.239574 1.713247
2005-03-08 16:06:32 51°13.888 2°52.822 3.0609 2.636812 28.265212 1.881794
2005-03-08 16:07:33 51°13.978 2°53.111 3.1735 2.649646 28.514029 1.746956
2005-03-08 16:08:33 51°14.061 2°53.401 3.1523 2.633025 28.240198 1.645828
2005-03-08 16:09:33 51°14.14 2°53.699 3.0988 2.647332 28.470755 1.5447
2005-03-08 16:10:33 51°14.224 2°53.984 3.337 2.647332 28.453305 -0.781249
2005-03-08 16:11:33 51°14.311 2°54.27 3.5676 2.647647 28.45545 -0.882377
2005-03-08 16:12:32 51°14.391 2°54.556 3.7651 2.647858 28.456351 -0.916087
2005-03-08 16:13:33 51°14.395 2°54.864 3.9133 2.647963 28.454424 -0.882377
2005-03-08 16:14:33 51°14.329 2°55.133 4.0497 2.648278 28.452607 -0.916087
2005-03-08 16:15:33 51°14.209 2°55.337 4.177 2.648594 28.446038 -0.882377
2005-03-08 16:16:33 51°14.087 2°55.437 4.3122 2.649225 28.441619 -0.882377
2005-03-08 16:17:33 51°13.974 2°55.522 4.4472 2.650171 28.433811 -0.916087
2005-03-08 16:18:33 51°13.865 2°55.603 4.54 2.651539 28.429398 -0.882377
2005-03-08 16:19:33 51°13.766 2°55.706 4.6268 2.653432 28.435139 -0.882377
2005-03-08 16:20:33 51°13.693 2°55.841 4.7928 2.655536 28.437832 -0.882377
2005-03-08 16:21:33 51°13.645 2°55.957 4.9373 2.65764 28.446043 -0.882377
2005-03-08 16:22:33 51°13.609 2°56.057 5.0987 2.660374 28.454581 -0.916087
2005-03-08 16:23:32 51°13.595 2°56.1 5.3203 2.662689 28.459737 -0.882377